Time;durP1;ratioP1;P1;durP2;ratioP2;P2;SDS_P1;SDS_P2;PMS_P1;PMS_P2;Temp;Humidity;BMP_temperature;BMP_pressure;BME280_temperature;BME280_humidity;BME280_pressure;Samples;Min_cycle;Max_cycle;Signal;HPM_P1;HPM_P2
2023/09/06 00:01:21;;;;;;;1.42;0.95;;;;;;;22.48;85.58;101413.66;5027040;28;20033;-68
2023/09/06 00:03:47;;;;;;;4.13;1.20;;;;;;;22.41;85.98;101416.50;5024302;28;20042;-67
2023/09/06 00:06:12;;;;;;;1.88;1.05;;;;;;;22.36;85.62;101412.25;5028736;28;20072;-66
2023/09/06 00:08:38;;;;;;;1.23;1.08;;;;;;;22.30;86.28;101415.88;5029439;28;20407;-67
2023/09/06 00:11:06;;;;;;;1.38;0.85;;;;;;;22.28;86.30;101416.31;5029755;28;20052;-67
2023/09/06 00:13:33;;;;;;;2.30;0.95;;;;;;;22.26;86.56;101417.94;5023260;28;20112;-66
2023/09/06 00:15:59;;;;;;;2.13;1.20;;;;;;;22.37;86.17;101418.53;5018767;28;20116;-66
2023/09/06 00:18:27;;;;;;;6.10;1.42;;;;;;;22.38;86.04;101417.31;5023655;28;20045;-67
2023/09/06 00:20:53;;;;;;;1.10;0.90;;;;;;;22.39;85.52;101418.91;5038528;28;20120;-66
2023/09/06 00:23:20;;;;;;;1.00;0.93;;;;;;;22.46;85.50;101418.78;5015116;28;20029;-66
2023/09/06 00:25:46;;;;;;;1.10;0.95;;;;;;;22.41;85.38;101424.75;5030374;28;20045;-67
2023/09/06 00:28:13;;;;;;;1.40;0.88;;;;;;;22.38;85.78;101425.56;5022927;28;20038;-67
2023/09/06 00:30:38;;;;;;;1.42;1.00;;;;;;;22.41;85.65;101428.25;5026171;28;20034;-66
2023/09/06 00:33:07;;;;;;;1.90;1.02;;;;;;;22.46;85.33;101421.53;5012306;28;20091;-66
2023/09/06 00:35:33;;;;;;;1.27;1.00;;;;;;;22.46;85.70;101432.50;5006378;28;20065;-67
2023/09/06 00:38:04;;;;;;;1.38;1.13;;;;;;;22.49;85.65;101431.69;5026726;28;20022;-66
2023/09/06 00:40:30;;;;;;;1.20;0.80;;;;;;;22.44;85.31;101426.66;5028015;28;20132;-67
2023/09/06 00:42:59;;;;;;;1.10;0.80;;;;;;;22.29;85.39;101425.31;5034534;28;20116;-66
2023/09/06 00:45:41;;;;;;;1.10;0.98;;;;;;;22.16;85.60;101427.09;5029605;28;20033;-67
2023/09/06 00:48:07;;;;;;;2.25;1.10;;;;;;;22.13;85.52;101427.91;5028984;28;20029;-67
2023/09/06 00:50:56;;;;;;;2.20;1.02;;;;;;;21.95;85.83;101428.16;5025085;28;20033;-67
2023/09/06 00:53:43;;;;;;;2.28;1.25;;;;;;;21.78;86.55;101426.41;4918299;29;20051;-66
2023/09/06 00:56:08;;;;;;;1.13;1.00;;;;;;;21.73;86.90;101415.13;4909545;29;20227;-67
2023/09/06 00:58:36;;;;;;;1.40;1.00;;;;;;;21.63;87.59;101421.50;4893469;29;20212;-66
2023/09/06 01:01:04;;;;;;;1.85;1.20;;;;;;;21.54;87.93;101425.53;4909379;29;20056;-67
2023/09/06 01:03:29;;;;;;;2.47;1.02;;;;;;;21.42;88.33;101419.81;4902771;29;20043;-67
2023/09/06 01:06:01;;;;;;;1.65;1.25;;;;;;;21.40;88.70;101409.28;4911134;29;20048;-67
2023/09/06 01:08:35;;;;;;;3.15;1.05;;;;;;;21.61;88.24;101412.91;4911172;29;20820;-66
2023/09/06 01:11:21;;;;;;;1.45;1.00;;;;;;;21.76;87.81;101411.53;4911683;29;20051;-67
2023/09/06 01:13:56;;;;;;;1.30;1.00;;;;;;;21.76;87.45;101417.03;4908838;29;20044;-67
2023/09/06 01:16:39;;;;;;;0.80;0.80;;;;;;;21.72;86.89;101416.31;4910730;29;20854;-67
2023/09/06 01:19:06;;;;;;;2.13;0.88;;;;;;;21.57;87.50;101410.22;4913986;29;20087;-67
2023/09/06 01:21:49;;;;;;;2.35;1.27;;;;;;;21.52;87.93;101410.69;4910603;29;20032;-67
2023/09/06 01:24:16;;;;;;;1.20;0.90;;;;;;;21.50;88.04;101405.59;4911844;29;20071;-67
2023/09/06 01:26:43;;;;;;;2.00;1.13;;;;;;;21.56;87.72;101408.69;4913382;29;20051;-67
2023/09/06 01:29:09;;;;;;;0.90;0.70;;;;;;;21.62;88.18;101414.50;4914124;29;20048;-67
2023/09/06 01:31:34;;;;;;;1.15;1.00;;;;;;;21.55;87.81;101415.34;4967152;28;20058;-67
2023/09/06 01:34:00;;;;;;;3.08;1.40;;;;;;;21.52;87.78;101408.72;5006456;28;20048;-67
2023/09/06 01:36:26;;;;;;;1.80;1.13;;;;;;;21.47;87.89;101411.13;5016129;28;20522;-67
2023/09/06 01:38:51;;;;;;;1.77;1.10;;;;;;;21.39;87.19;101413.19;5035522;28;20447;-67
2023/09/06 01:41:17;;;;;;;4.65;1.08;;;;;;;21.18;88.17;101402.47;5018419;28;20037;-67
2023/09/06 01:43:42;;;;;;;1.10;0.90;;;;;;;21.11;89.19;101407.25;5036755;28;20031;-67
2023/09/06 01:46:08;;;;;;;1.17;0.77;;;;;;;21.16;89.30;101404.84;5023541;28;20040;-67
2023/09/06 01:48:33;;;;;;;0.93;0.80;;;;;;;21.08;89.32;101403.34;5034407;28;20033;-67
2023/09/06 01:50:59;;;;;;;2.15;1.17;;;;;;;21.17;89.44;101400.94;5038162;28;20487;-66
2023/09/06 01:53:24;;;;;;;0.90;0.85;;;;;;;21.20;88.83;101399.31;5030371;28;20045;-67
2023/09/06 01:55:50;;;;;;;1.17;0.95;;;;;;;21.29;88.63;101403.13;5011546;28;20042;-67
2023/09/06 01:58:16;;;;;;;2.38;1.20;;;;;;;21.23;88.52;101398.50;5024137;28;20029;-67
2023/09/06 02:00:44;;;;;;;1.35;1.00;;;;;;;21.21;88.38;101404.41;5015039;28;20045;-67
2023/09/06 02:03:14;;;;;;;2.33;1.08;;;;;;;21.24;87.98;101406.31;5011203;28;20022;-67
2023/09/06 02:05:43;;;;;;;1.65;1.30;;;;;;;21.17;88.82;101397.41;5030431;28;20041;-67
2023/09/06 02:08:09;;;;;;;1.40;0.90;;;;;;;21.26;87.86;101403.16;5026778;28;20120;-67
2023/09/06 02:10:34;;;;;;;1.20;0.90;;;;;;;21.24;88.02;101405.53;5008106;28;20124;-67
2023/09/06 02:13:00;;;;;;;3.33;1.10;;;;;;;21.19;88.16;101401.28;5027222;28;20048;-67
2023/09/06 02:15:26;;;;;;;1.65;0.98;;;;;;;21.11;88.21;101407.25;5005313;28;20026;-67
2023/09/06 02:17:52;;;;;;;1.40;0.98;;;;;;;21.02;88.05;101404.22;5010420;28;20036;-67
2023/09/06 02:20:19;;;;;;;1.17;0.90;;;;;;;20.89;88.04;101409.38;5025400;28;20042;-67
2023/09/06 02:22:47;;;;;;;1.70;1.10;;;;;;;20.79;88.88;101402.06;5024196;28;20022;-67
2023/09/06 02:25:14;;;;;;;1.63;1.05;;;;;;;20.80;88.28;101395.41;5031010;28;20061;-67
2023/09/06 02:27:42;;;;;;;1.10;1.00;;;;;;;20.77;88.30;101398.94;5030915;28;20523;-67
2023/09/06 02:30:09;;;;;;;1.27;0.93;;;;;;;20.75;88.13;101406.03;5030360;28;20036;-67
2023/09/06 02:32:34;;;;;;;1.33;1.20;;;;;;;20.63;88.66;101396.34;5009021;28;20078;-67
2023/09/06 02:35:02;;;;;;;0.95;0.93;;;;;;;20.62;88.73;101397.50;5022159;28;20443;-67
2023/09/06 02:37:27;;;;;;;4.18;1.27;;;;;;;20.59;89.19;101399.13;5013232;28;20041;-67
2023/09/06 02:39:53;;;;;;;1.25;1.00;;;;;;;20.56;89.80;101396.41;5008821;28;20026;-67
2023/09/06 02:42:19;;;;;;;2.00;0.98;;;;;;;20.57;89.84;101401.47;5029205;28;20029;-66
2023/09/06 02:44:45;;;;;;;1.13;1.02;;;;;;;20.52;90.49;101410.13;5024873;28;20037;-67
2023/09/06 02:47:14;;;;;;;2.78;1.33;;;;;;;20.57;89.88;101415.16;5025995;28;20416;-67
2023/09/06 02:49:42;;;;;;;1.10;0.70;;;;;;;20.60;89.40;101408.09;5021863;28;20721;-66
2023/09/06 02:52:20;;;;;;;2.40;1.10;;;;;;;20.62;88.96;101419.41;5021361;28;20108;-67
2023/09/06 02:54:49;;;;;;;0.98;0.80;;;;;;;20.50;89.67;101408.94;5020739;28;20076;-67
2023/09/06 02:57:18;;;;;;;1.20;1.02;;;;;;;20.52;89.43;101420.28;5021380;28;20017;-67
2023/09/06 02:59:43;;;;;;;3.15;1.00;;;;;;;20.49;89.56;101424.63;5031100;28;20087;-67
2023/09/06 03:02:12;;;;;;;1.98;1.17;;;;;;;20.55;89.89;101424.97;5013796;28;20476;-67
2023/09/06 03:04:40;;;;;;;1.02;0.90;;;;;;;20.63;89.61;101421.75;5006587;28;20025;-66
2023/09/06 03:07:10;;;;;;;1.08;0.93;;;;;;;20.63;89.15;101426.47;5023705;28;20025;-67
2023/09/06 03:09:38;;;;;;;1.10;0.75;;;;;;;20.58;89.37;101424.94;5014049;28;20116;-66
2023/09/06 03:12:16;;;;;;;1.33;0.88;;;;;;;20.59;89.34;101434.72;5010947;28;20113;-67
2023/09/06 03:14:47;;;;;;;1.33;1.05;;;;;;;20.56;88.84;101431.97;5009128;28;20037;-66
2023/09/06 03:17:14;;;;;;;2.42;0.82;;;;;;;;;;5013733;28;20030;-66
2023/09/06 03:19:44;;;;;;;1.20;0.88;;;;;;;20.44;88.99;101429.75;5006607;28;20029;-66
2023/09/06 03:22:12;;;;;;;1.10;1.00;;;;;;;20.35;88.72;101438.41;5028694;28;20112;-66
2023/09/06 03:24:40;;;;;;;1.80;1.08;;;;;;;20.24;89.05;101431.44;5013214;28;20033;-66
2023/09/06 03:27:15;;;;;;;1.50;1.08;;;;;;;20.13;89.81;101436.19;5006168;28;20033;-67
2023/09/06 03:29:41;;;;;;;1.77;0.95;;;;;;;20.15;89.97;101439.31;5001534;28;20048;-67
2023/09/06 03:32:09;;;;;;;1.48;1.00;;;;;;;20.25;89.63;101443.94;5027919;28;20650;-66
2023/09/06 03:34:37;;;;;;;1.60;0.85;;;;;;;20.38;89.38;101437.59;5013554;28;20116;-66
2023/09/06 03:37:05;;;;;;;1.17;0.98;;;;;;;20.37;89.95;101432.53;5031518;28;20120;-66
2023/09/06 03:39:37;;;;;;;1.58;1.17;;;;;;;20.40;89.72;101437.19;4997697;28;20180;-66
2023/09/06 03:42:08;;;;;;;1.70;1.20;;;;;;;20.46;89.29;101441.06;5010806;28;20056;-66
2023/09/06 03:44:37;;;;;;;1.83;1.00;;;;;;;20.47;89.35;101445.34;5026190;28;20542;-66
2023/09/06 03:47:05;;;;;;;2.22;1.23;;;;;;;;;;5029832;28;20075;-66
2023/09/06 03:49:35;;;;;;;1.23;1.08;;;;;;;20.55;89.10;101452.34;5031188;28;20107;-66
2023/09/06 03:52:04;;;;;;;1.63;1.20;;;;;;;20.48;89.45;101446.91;5019941;28;20076;-66
2023/09/06 03:54:32;;;;;;;1.52;1.13;;;;;;;20.49;89.60;101449.25;5017351;28;20033;-66
2023/09/06 03:56:57;;;;;;;1.33;1.10;;;;;;;20.50;89.71;101463.69;5023815;28;20542;-66
2023/09/06 03:59:24;;;;;;;1.75;1.25;;;;;;;20.53;89.33;101457.44;5013279;28;20033;-66
2023/09/06 04:01:49;;;;;;;2.95;1.17;;;;;;;20.49;89.78;101456.69;5002576;28;20018;-66
2023/09/06 04:04:15;;;;;;;1.85;1.10;;;;;;;20.43;89.20;101456.34;5027627;28;20033;-66
2023/09/06 04:06:43;;;;;;;1.35;1.02;;;;;;;20.29;89.42;101450.94;5028731;28;20033;-66
2023/09/06 04:09:13;;;;;;;1.52;0.98;;;;;;;20.20;89.53;101452.56;5009727;28;20034;-66
2023/09/06 04:11:42;;;;;;;1.70;1.00;;;;;;;20.18;89.88;101452.16;5015193;28;20033;-66
2023/09/06 04:14:10;;;;;;;1.42;1.13;;;;;;;20.16;89.78;101451.78;5030456;28;20104;-66
2023/09/06 04:16:39;;;;;;;1.65;0.98;;;;;;;20.21;89.92;101448.69;5024783;28;20485;-66
2023/09/06 04:19:05;;;;;;;1.90;0.95;;;;;;;20.27;89.82;101450.56;5025749;28;20132;-66
2023/09/06 04:21:32;;;;;;;3.15;1.30;;;;;;;20.32;89.71;101452.13;5013309;28;20514;-66
2023/09/06 04:23:58;;;;;;;1.95;1.35;;;;;;;20.31;90.17;101456.81;5012100;28;20033;-66
2023/09/06 04:26:25;;;;;;;2.22;1.40;;;;;;;20.28;90.22;101454.09;5006559;28;20341;-66
2023/09/06 04:28:52;;;;;;;1.30;1.20;;;;;;;20.21;90.80;101454.91;5024560;28;20047;-66
2023/09/06 04:31:19;;;;;;;1.48;1.10;;;;;;;20.26;90.63;101453.72;5006269;28;20452;-66
2023/09/06 04:33:46;;;;;;;1.42;1.08;;;;;;;20.24;90.62;101448.66;5011383;28;20104;-66
2023/09/06 04:36:18;;;;;;;2.00;1.45;;;;;;;20.22;90.70;101448.25;5021674;28;20029;-66
2023/09/06 04:38:46;;;;;;;1.55;1.20;;;;;;;20.27;90.36;101449.78;5011035;28;20096;-66
2023/09/06 04:41:14;;;;;;;2.75;1.50;;;;;;;20.28;89.91;101448.63;5028224;28;20025;-66
2023/09/06 04:43:47;;;;;;;0.82;0.82;;;;;;;20.15;89.97;101450.25;5006348;28;20034;-66
2023/09/06 04:46:13;;;;;;;2.47;1.80;;;;;;;20.08;90.32;101450.25;5027505;28;20052;-66
2023/09/06 04:48:43;;;;;;;1.38;1.15;;;;;;;20.01;90.22;101447.56;4999628;28;20108;-65
2023/09/06 04:51:08;;;;;;;1.27;0.98;;;;;;;19.98;90.62;101448.34;5010624;28;20168;-67
2023/09/06 04:53:34;;;;;;;2.00;1.13;;;;;;;20.00;90.59;101448.75;5004657;28;20044;-68
2023/09/06 04:56:25;;;;;;;1.83;1.15;;;;;;;19.95;90.50;101441.75;5011487;28;20468;-66
2023/09/06 04:58:51;;;;;;;2.05;1.08;;;;;;;19.94;90.74;101444.88;4949709;29;20035;-65
2023/09/06 05:01:16;;;;;;;1.58;1.05;;;;;;;19.95;90.74;101444.50;4945408;29;20046;-69
2023/09/06 05:03:42;;;;;;;1.25;1.10;;;;;;;19.92;90.86;101445.25;4936604;28;20039;-65
2023/09/06 05:06:07;;;;;;;4.60;1.25;;;;;;;19.79;91.46;101449.63;4939000;28;20035;-68
2023/09/06 05:08:34;;;;;;;1.25;1.15;;;;;;;19.75;92.09;101460.59;4918078;29;20031;-66
2023/09/06 05:11:25;;;;;;;2.08;1.23;;;;;;;19.83;91.58;101460.56;4942710;28;20047;-68
2023/09/06 05:13:52;;;;;;;2.15;1.25;;;;;;;19.87;92.15;101469.53;4948160;28;20126;-66
2023/09/06 05:16:18;;;;;;;2.65;1.20;;;;;;;19.94;91.91;101472.25;4934405;29;20043;-67
2023/09/06 05:18:43;;;;;;;1.45;1.02;;;;;;;20.01;91.85;101464.00;4936472;29;20038;-67
2023/09/06 05:21:10;;;;;;;4.15;1.30;;;;;;;20.07;91.25;101476.06;4946174;29;20083;-66
2023/09/06 05:23:37;;;;;;;1.17;0.95;;;;;;;20.13;91.25;101477.22;4947266;28;20051;-67
2023/09/06 05:26:03;;;;;;;2.13;1.10;;;;;;;20.14;91.28;101484.22;4925612;29;20972;-66
2023/09/06 05:28:36;;;;;;;1.77;1.20;;;;;;;20.15;90.90;101486.56;4935934;28;20467;-67
2023/09/06 05:31:03;;;;;;;2.47;1.30;;;;;;;20.14;91.17;101485.00;4908896;29;20031;-68
2023/09/06 05:33:36;;;;;;;1.70;1.02;;;;;;;20.16;90.93;101487.34;4929008;29;20035;-68
2023/09/06 05:36:03;;;;;;;1.38;1.20;;;;;;;20.16;91.05;101492.81;4994418;28;20543;-67
2023/09/06 05:38:28;;;;;;;1.58;1.23;;;;;;;20.17;91.25;101486.19;5022991;28;20381;-67
2023/09/06 05:40:54;;;;;;;1.15;1.05;;;;;;;20.17;91.46;101491.66;5011279;28;20029;-68
2023/09/06 05:43:27;;;;;;;2.67;1.17;;;;;;;20.10;92.19;101500.66;5007394;28;20030;-67
2023/09/06 05:45:53;;;;;;;1.88;1.20;;;;;;;20.17;92.18;101492.41;5023056;28;20622;-68
2023/09/06 05:48:19;;;;;;;1.52;1.30;;;;;;;20.21;92.15;101493.22;5008606;28;20029;-67
2023/09/06 05:50:47;;;;;;;4.57;1.55;;;;;;;20.21;92.11;101500.66;5002001;28;20381;-67
2023/09/06 05:53:13;;;;;;;2.63;1.48;;;;;;;20.25;91.68;101498.66;5009157;28;20044;-68
2023/09/06 05:55:38;;;;;;;2.25;1.40;;;;;;;20.24;91.73;101506.09;4991329;28;20083;-68
2023/09/06 05:58:04;;;;;;;3.33;1.30;;;;;;;20.24;92.63;101505.31;5031660;28;20037;-67
2023/09/06 06:00:30;;;;;;;1.67;1.10;;;;;;;20.21;92.68;101506.88;5032900;28;20029;-68
2023/09/06 06:02:58;;;;;;;1.63;1.17;;;;;;;20.22;93.10;101510.41;5007677;28;20026;-68
2023/09/06 06:05:24;;;;;;;1.73;1.17;;;;;;;20.23;93.18;101506.47;5013746;28;20148;-68
2023/09/06 06:07:51;;;;;;;1.25;1.15;;;;;;;20.23;93.63;101510.00;5015474;28;20121;-68
2023/09/06 06:10:16;;;;;;;1.67;0.90;;;;;;;20.25;94.07;101515.06;5026243;28;20018;-67
2023/09/06 06:12:43;;;;;;;1.88;1.33;;;;;;;20.27;94.30;101524.44;5023812;28;20485;-67
2023/09/06 06:15:13;;;;;;;1.80;1.25;;;;;;;20.35;93.91;101522.44;5025781;28;20492;-67
2023/09/06 06:17:39;;;;;;;1.75;1.13;;;;;;;20.41;94.37;101523.59;5011241;28;20049;-67
2023/09/06 06:20:06;;;;;;;1.80;1.23;;;;;;;20.50;93.96;101526.66;5013899;28;20017;-67
2023/09/06 06:22:37;;;;;;;1.55;1.20;;;;;;;20.57;94.05;101529.38;5031028;28;20045;-67
2023/09/06 06:25:06;;;;;;;;;;;;;;;20.67;93.99;101531.25;5033017;28;20467;-68
2023/09/06 06:27:32;;;;;;;1.77;1.20;;;;;;;20.78;93.51;101533.91;5009432;28;20503;-68
2023/09/06 06:29:57;;;;;;;2.42;1.38;;;;;;;20.84;93.86;101540.50;4996090;28;20120;-68
2023/09/06 06:32:23;;;;;;;2.40;1.42;;;;;;;20.91;93.81;101534.97;5030035;28;20107;-67
2023/09/06 06:34:51;;;;;;;2.90;1.33;;;;;;;20.99;93.76;101526.31;5032911;28;20104;-68
2023/09/06 06:37:16;;;;;;;1.73;1.08;;;;;;;21.15;93.46;101534.81;5011751;28;20391;-67
2023/09/06 06:39:42;;;;;;;2.13;1.40;;;;;;;21.33;93.62;101529.19;5031938;28;20029;-68
2023/09/06 06:42:07;;;;;;;1.73;1.17;;;;;;;21.47;93.37;101532.53;5031671;28;20836;-68
2023/09/06 06:44:38;;;;;;;1.77;1.23;;;;;;;21.73;92.56;101535.78;5014662;28;20404;-68
2023/09/06 06:47:04;;;;;;;1.58;1.27;;;;;;;21.96;92.14;101541.44;5027485;28;20037;-68
2023/09/06 06:49:30;;;;;;;2.17;1.33;;;;;;;22.17;91.81;101532.94;5030306;28;20036;-68
2023/09/06 06:51:55;;;;;;;1.25;0.82;;;;;;;22.25;90.84;101537.16;5009997;28;20034;-68
2023/09/06 06:54:21;;;;;;;1.65;1.10;;;;;;;22.47;88.91;101540.38;5030967;28;20143;-68
2023/09/06 06:56:46;;;;;;;3.90;1.60;;;;;;;22.58;88.70;101539.06;5031936;28;20096;-68
2023/09/06 06:59:13;;;;;;;2.00;1.20;;;;;;;22.71;87.69;101536.50;5014426;28;20029;-67
2023/09/06 07:01:38;;;;;;;1.75;1.10;;;;;;;22.91;87.49;101540.91;5007436;28;20052;-67
2023/09/06 07:04:04;;;;;;;1.30;1.17;;;;;;;23.10;86.47;101540.19;5013049;28;20021;-68
2023/09/06 07:06:30;;;;;;;1.48;0.90;;;;;;;23.22;85.19;101541.56;5031632;28;20396;-68
2023/09/06 07:08:57;;;;;;;1.10;0.95;;;;;;;23.45;85.36;101546.28;5032032;28;20392;-68
2023/09/06 07:11:23;;;;;;;2.35;1.33;;;;;;;23.73;84.15;101548.53;5009575;28;20024;-68
2023/09/06 07:13:50;;;;;;;1.95;1.08;;;;;;;23.92;82.59;101554.03;5010627;28;20044;-68
2023/09/06 07:16:17;;;;;;;1.85;1.15;;;;;;;24.07;82.30;101549.81;5013836;28;20029;-68
2023/09/06 07:18:43;;;;;;;1.10;0.75;;;;;;;24.19;82.12;101559.41;5028274;28;20092;-68
2023/09/06 07:21:31;;;;;;;1.63;0.98;;;;;;;24.35;80.93;101562.19;5032050;28;20095;-68
2023/09/06 07:23:56;;;;;;;1.90;1.15;;;;;;;24.59;78.70;101555.38;4934553;29;20051;-68
2023/09/06 07:26:22;;;;;;;1.30;1.00;;;;;;;24.66;77.91;101566.22;4938696;29;20071;-68
2023/09/06 07:28:47;;;;;;;1.38;0.95;;;;;;;24.95;78.75;101566.38;4933369;29;20043;-67
2023/09/06 07:31:14;;;;;;;1.75;0.90;;;;;;;24.93;77.75;101572.31;4938235;29;20473;-68
2023/09/06 07:33:40;;;;;;;1.15;0.82;;;;;;;25.12;77.64;101578.16;4917842;29;20023;-68
2023/09/06 07:36:06;;;;;;;1.10;0.98;;;;;;;25.22;76.17;101575.16;4941191;29;20452;-67
2023/09/06 07:38:32;;;;;;;1.48;0.98;;;;;;;25.25;74.01;101579.78;4911312;29;20566;-68
2023/09/06 07:41:05;;;;;;;1.55;0.85;;;;;;;25.53;73.97;101581.09;4924954;29;20077;-68
2023/09/06 07:43:31;;;;;;;1.38;0.85;;;;;;;25.94;72.31;101581.13;4927362;29;20040;-68
2023/09/06 07:45:57;;;;;;;0.80;0.70;;;;;;;26.00;70.01;101578.63;4913262;29;20079;-67
2023/09/06 07:48:31;;;;;;;1.05;0.80;;;;;;;25.87;70.10;101579.34;4929385;29;20079;-68
2023/09/06 07:50:58;;;;;;;0.98;0.82;;;;;;;25.85;71.32;101578.22;4915947;29;20470;-68
2023/09/06 07:53:26;;;;;;;0.95;0.82;;;;;;;26.12;70.66;101588.94;4933002;29;20043;-68
2023/09/06 07:55:53;;;;;;;0.93;0.70;;;;;;;26.42;71.69;101582.94;4933271;29;20063;-68
2023/09/06 07:58:19;;;;;;;1.17;0.82;;;;;;;26.70;71.17;101590.38;4916507;29;20045;-68
2023/09/06 08:00:46;;;;;;;3.75;0.82;;;;;;;26.80;68.08;101597.56;4966717;28;20050;-68
2023/09/06 08:03:11;;;;;;;1.83;0.93;;;;;;;26.93;68.21;101598.31;5030058;28;20492;-68
2023/09/06 08:05:37;;;;;;;2.88;0.68;;;;;;;27.15;65.95;101601.16;5029311;28;20042;-68
2023/09/06 08:08:07;;;;;;;1.42;0.90;;;;;;;27.26;67.53;101596.06;5028633;28;20388;-68
2023/09/06 08:10:36;;;;;;;1.15;0.70;;;;;;;27.50;66.32;101591.72;5009746;28;20026;-68
2023/09/06 08:13:03;;;;;;;0.82;0.63;;;;;;;27.50;64.61;101595.25;5011516;28;20065;-68
2023/09/06 08:15:30;;;;;;;0.93;0.73;;;;;;;27.66;62.81;101603.38;5012016;28;20025;-68
2023/09/06 08:17:56;;;;;;;1.42;0.80;;;;;;;28.05;62.62;101599.25;5009976;28;20041;-68
2023/09/06 08:20:22;;;;;;;0.93;0.70;;;;;;;28.22;63.36;101595.03;5009420;28;20041;-68
2023/09/06 08:22:47;;;;;;;0.85;0.50;;;;;;;28.36;61.38;101602.03;5012073;28;20056;-68
2023/09/06 08:25:17;;;;;;;0.77;0.60;;;;;;;28.51;59.91;101606.59;5008751;28;20061;-68
2023/09/06 08:27:43;;;;;;;0.95;0.75;;;;;;;28.64;56.67;101605.75;5025421;28;20029;-68
2023/09/06 08:30:11;;;;;;;0.88;0.60;;;;;;;28.73;56.61;101612.09;5030447;28;20029;-68
2023/09/06 08:32:41;;;;;;;0.75;0.75;;;;;;;28.69;58.09;101611.47;5029750;28;20032;-68
2023/09/06 08:35:07;;;;;;;2.20;0.50;;;;;;;28.64;57.27;101614.06;5030151;28;20029;-68
2023/09/06 08:37:33;;;;;;;0.90;0.77;;;;;;;28.86;59.03;101612.03;5008909;28;20504;-68
2023/09/06 08:39:59;;;;;;;0.85;0.70;;;;;;;29.14;58.92;101613.66;5029921;28;20033;-68
2023/09/06 08:42:27;;;;;;;0.82;0.57;;;;;;;29.50;57.15;101618.50;5029387;28;20063;-68
2023/09/06 08:44:55;;;;;;;1.35;0.70;;;;;;;29.46;56.94;101615.88;5023582;28;20030;-68
2023/09/06 08:47:21;;;;;;;0.90;0.57;;;;;;;29.87;57.78;101617.28;5011847;28;20045;-68
2023/09/06 08:49:47;;;;;;;0.75;0.60;;;;;;;30.10;57.42;101622.97;5031178;28;20025;-68
2023/09/06 08:52:36;;;;;;;0.93;0.80;;;;;;;30.41;53.78;101620.00;5038361;28;20809;-68
2023/09/06 08:55:03;;;;;;;2.50;0.43;;;;;;;30.47;53.61;101617.38;4927287;29;20612;-68
2023/09/06 08:57:28;;;;;;;0.57;0.40;;;;;;;30.71;52.08;101618.97;4928981;29;20107;-68
2023/09/06 08:59:54;;;;;;;0.85;0.40;;;;;;;30.69;51.29;101613.13;4912220;29;20043;-68
2023/09/06 09:02:19;;;;;;;0.47;0.47;;;;;;;30.80;50.10;101618.94;4927803;29;20043;-68
2023/09/06 09:04:45;;;;;;;0.82;0.30;;;;;;;30.68;50.51;101610.81;4914463;29;20078;-67
2023/09/06 09:07:12;;;;;;;0.70;0.40;;;;;;;30.90;50.73;101614.13;4930395;29;20153;-68
2023/09/06 09:10:16;;;;;;;0.60;0.43;;;;;;;31.10;48.73;101617.13;4927460;29;20536;-67
2023/09/06 09:12:42;;;;;;;0.50;0.50;;;;;;;31.16;47.93;101614.44;4926282;29;20543;-68
2023/09/06 09:15:08;;;;;;;0.95;0.57;;;;;;;31.20;49.31;101624.16;4921546;29;20039;-68
2023/09/06 09:17:37;;;;;;;0.47;0.35;;;;;;;31.52;48.81;101620.56;4928703;29;20467;-68
2023/09/06 09:20:03;;;;;;;0.65;0.47;;;;;;;31.57;48.66;101625.47;4938167;29;20052;-68
2023/09/06 09:22:31;;;;;;;0.80;0.60;;;;;;;31.67;45.75;101624.16;4929333;29;20075;-68
2023/09/06 09:25:04;;;;;;;0.50;0.32;;;;;;;31.29;46.92;101621.31;4929831;29;20127;-68
2023/09/06 09:27:31;;;;;;;0.52;0.32;;;;;;;31.33;47.02;101616.34;4932068;29;20133;-68
2023/09/06 09:30:00;;;;;;;1.13;0.30;;;;;;;31.69;46.09;101621.66;4933513;29;20712;-68
2023/09/06 09:32:25;;;;;;;0.63;0.52;;;;;;;32.00;46.82;101623.28;4990387;28;20037;-68
2023/09/06 09:34:52;;;;;;;0.73;0.50;;;;;;;32.12;46.37;101617.41;5034014;28;20033;-68
2023/09/06 09:37:18;;;;;;;1.42;0.35;;;;;;;32.36;45.85;101623.69;5028503;28;20029;-68
2023/09/06 09:39:44;;;;;;;0.95;0.43;;;;;;;31.96;44.44;101618.66;5015777;28;20403;-68
2023/09/06 09:42:11;;;;;;;0.30;0.30;;;;;;;32.19;45.31;101617.03;5011637;28;20034;-68
2023/09/06 09:44:37;;;;;;;1.38;0.45;;;;;;;32.45;43.95;101617.25;5032843;28;20550;-68
2023/09/06 09:47:13;;;;;;;1.17;0.47;;;;;;;32.53;44.88;101619.16;5020112;28;20033;-68
2023/09/06 09:49:42;;;;;;;0.75;0.40;;;;;;;32.78;46.15;101621.34;5018042;28;20208;-68
2023/09/06 09:52:11;;;;;;;0.43;0.40;;;;;;;33.00;43.50;101620.16;5028491;28;20100;-67
2023/09/06 09:54:41;;;;;;;0.52;0.30;;;;;;;32.95;44.44;101613.19;5015278;28;20451;-68
2023/09/06 09:57:07;;;;;;;;;;;;;;;33.14;44.83;101613.75;5012466;28;20038;-68
2023/09/06 09:59:35;;;;;;;0.47;0.38;;;;;;;33.23;45.01;101613.59;5018571;28;19916;-68
2023/09/06 10:02:02;;;;;;;1.48;0.60;;;;;;;33.35;43.01;101610.44;5029098;28;20479;-67
2023/09/06 10:04:29;;;;;;;0.70;0.38;;;;;;;33.33;44.01;101607.41;5032899;28;20488;-68
2023/09/06 10:06:55;;;;;;;0.50;0.40;;;;;;;33.57;44.29;101607.19;5032785;28;20028;-68
2023/09/06 10:09:22;;;;;;;1.88;0.50;;;;;;;33.71;44.47;101611.91;5028067;28;20026;-68
2023/09/06 10:11:50;;;;;;;0.60;0.50;;;;;;;33.95;44.55;101614.47;5010987;28;20037;-68
2023/09/06 10:14:18;;;;;;;0.35;0.30;;;;;;;34.18;43.77;101608.63;5012494;28;20496;-67
2023/09/06 10:16:45;;;;;;;2.70;0.57;;;;;;;34.13;42.05;101603.72;5015150;28;20037;-68
2023/09/06 10:19:31;;;;;;;0.60;0.50;;;;;;;34.21;42.48;101604.81;5024317;28;20031;-68
2023/09/06 10:22:00;;;;;;;0.35;0.32;;;;;;;34.38;43.28;101599.34;4945834;29;20245;-68
2023/09/06 10:24:32;;;;;;;0.85;0.60;;;;;;;34.54;42.77;101601.53;4945697;28;20462;-68
2023/09/06 10:26:57;;;;;;;0.65;0.60;;;;;;;34.56;42.31;101607.41;4941439;29;20074;-68
2023/09/06 10:29:24;;;;;;;0.50;0.43;;;;;;;34.40;42.62;101616.41;4948777;29;20449;-68
2023/09/06 10:31:53;;;;;;;0.73;0.47;;;;;;;34.39;41.89;101603.69;4934223;29;20036;-68
2023/09/06 10:34:19;;;;;;;0.90;0.50;;;;;;;34.38;41.53;101608.50;4934273;29;20048;-68
2023/09/06 10:36:56;;;;;;;0.80;0.60;;;;;;;34.24;42.02;101603.81;4908655;28;20383;-67
2023/09/06 10:39:25;;;;;;;0.52;0.32;;;;;;;34.36;40.68;101607.50;4938242;29;20059;-68
2023/09/06 10:42:09;;;;;;;0.60;0.50;;;;;;;34.04;41.71;101598.31;4934884;29;20035;-68
2023/09/06 10:44:56;;;;;;;1.05;0.50;;;;;;;33.87;42.50;101602.16;4932900;29;20187;-68
2023/09/06 10:47:30;;;;;;;0.65;0.50;;;;;;;33.94;41.92;101599.69;4932837;29;20074;-68
2023/09/06 10:50:15;;;;;;;1.60;0.70;;;;;;;33.62;42.44;101593.25;4951150;29;20067;-69
2023/09/06 10:52:42;;;;;;;0.40;0.30;;;;;;;33.91;42.59;101594.31;4918270;29;20519;-68
2023/09/06 10:55:14;;;;;;;0.40;0.40;;;;;;;33.72;43.04;101595.91;4931715;29;20070;-68
2023/09/06 10:57:47;;;;;;;0.30;0.30;;;;;;;34.11;42.36;101595.06;4921432;29;20103;-67
2023/09/06 11:00:18;;;;;;;1.92;0.45;;;;;;;33.99;41.17;101592.66;5029651;28;20061;-68
2023/09/06 11:02:44;;;;;;;0.60;0.30;;;;;;;34.15;41.55;101594.81;5018571;28;20049;-67
2023/09/06 11:05:15;;;;;;;0.75;0.40;;;;;;;34.29;41.42;101600.31;5031941;28;20036;-67
2023/09/06 11:07:43;;;;;;;0.30;0.30;;;;;;;34.17;41.67;101595.09;5032054;28;20048;-68
2023/09/06 11:10:09;;;;;;;0.32;0.30;;;;;;;34.39;41.04;101592.50;5031949;28;20767;-67
2023/09/06 11:12:36;;;;;;;1.48;0.50;;;;;;;34.51;40.59;101588.53;5020414;28;20021;-68
2023/09/06 11:15:01;;;;;;;0.50;0.40;;;;;;;34.60;41.83;101593.16;5013228;28;20033;-68
2023/09/06 11:17:27;;;;;;;0.30;0.20;;;;;;;34.78;40.78;101593.56;5007951;28;20479;-69
2023/09/06 11:19:53;;;;;;;0.65;0.30;;;;;;;34.97;40.55;101589.09;5006949;28;20037;-68
2023/09/06 11:22:19;;;;;;;0.68;0.47;;;;;;;34.97;41.22;101591.91;5027730;28;20022;-68
2023/09/06 11:24:45;;;;;;;0.40;0.40;;;;;;;35.19;41.23;101594.81;5031884;28;20117;-67
2023/09/06 11:27:19;;;;;;;0.30;0.30;;;;;;;35.26;40.90;101591.53;5012023;28;20132;-68
2023/09/06 11:29:57;;;;;;;0.15;0.13;;;;;;;35.30;39.60;101591.28;5018895;28;20040;-69
2023/09/06 11:32:22;;;;;;;0.40;0.30;;;;;;;35.32;39.22;101586.72;5027494;28;20170;-68